Kezdőlap
METAR-TAF:

METAR-TAF

Repülőterek :

Pian Rosa, Olaszország

földrajzi szélesség: 45-56N, földrajzi hosszúság: 007-42E, magasság: 3480 m

Jelenlegi meteorológiai megfigyelések

A jelentés 1 órával és 17 perccel ezelõtt készült, 11:55 UTC
Dél-délnyugati szél 20 kt széllökések: 32 kt
Hőmérséklet -7°C
Páratartalom 73%
Légköri nyomás 1012 hPa
Látótávolság 10 km, vagy több
felhőtlen 1500 m magasságban, és nincs gomolyfelhõ

METAR: LIMH 151155Z 21020G32KT CAVOK M07/M11 Q1012 RMK BKN BKN100 MON LIB VAL NIL VIS MIN 9999

Idő: 14:12 (13:12 UTC)


TAF: hiányzik

Meteorológiai megfigyelések és előrejelzések több, mint 4000 repülőtéren (METAR és TAF jelentéseket).

A térképen piros és sárga pontok jelzik az elérhető meteorológiai állomásokat.

Mozgassa az egeret a pont fölött, hogy megjelenjen az állomás neve.

Azután kattintson az időjárási megfigyelések és előrejelzések megtekintéséhez.

A térkép megváltoztatása: kattintson a fekete keresztel jelölt zöld gombra ráközelítéshez, a vonallal jelölt zöld gombra távolításhoz, vagy a zöld nyilakra a szomszédos térképek eléréséhez.


METAR-TAF: